createdAt,value
2023-02-17T00:01:47.542Z,100.00
2023-02-17T00:04:17.828Z,99.28
2023-02-17T00:06:46.917Z,98.50
2023-02-17T00:09:16.587Z,98.14
2023-02-17T00:11:47.364Z,98.52
2023-02-17T00:14:16.563Z,99.28
2023-02-17T00:16:46.500Z,100.00
2023-02-17T00:19:25.512Z,100.00
2023-02-17T00:22:01.247Z,100.00
2023-02-17T00:24:32.952Z,100.00
2023-02-17T00:27:02.443Z,100.00
2023-02-17T00:29:32.283Z,100.00
2023-02-17T00:32:01.310Z,100.00
2023-02-17T00:34:30.851Z,99.95
2023-02-17T00:37:01.085Z,99.72
2023-02-17T00:39:31.038Z,100.00
2023-02-17T00:42:00.405Z,100.00
2023-02-17T00:44:33.205Z,100.00
2023-02-17T00:47:02.686Z,100.00
2023-02-17T00:49:32.708Z,100.00
2023-02-17T00:52:02.498Z,100.00
2023-02-17T00:54:31.934Z,100.00
2023-02-17T00:57:01.222Z,100.00
2023-02-17T00:59:34.795Z,100.00
2023-02-17T01:02:06.292Z,100.00
2023-02-17T01:04:36.877Z,100.00
2023-02-17T01:07:05.891Z,100.00
2023-02-17T01:09:36.410Z,100.00
2023-02-17T01:12:06.311Z,100.00
2023-02-17T01:14:35.096Z,100.00
2023-02-17T01:17:04.700Z,100.00
2023-02-17T01:19:34.412Z,100.00
2023-02-17T01:22:03.722Z,100.00
2023-02-17T01:24:32.732Z,100.00
2023-02-17T01:27:02.122Z,100.00
2023-02-17T01:29:32.068Z,100.00
2023-02-17T01:44:12.012Z,99.39
2023-02-17T01:46:43.909Z,99.93
2023-02-17T01:49:17.595Z,100.00
2023-02-17T01:52:08.691Z,100.00
2023-02-17T01:54:57.329Z,100.00
2023-02-17T01:57:31.642Z,100.00
2023-02-17T02:00:01.737Z,100.00
2023-02-17T02:02:46.585Z,100.00
2023-02-17T02:05:20.080Z,100.00
2023-02-17T02:07:51.234Z,100.00
2023-02-17T02:10:21.082Z,99.97
2023-02-17T02:12:50.676Z,100.00
2023-02-17T02:15:27.517Z,100.00
2023-02-17T02:18:24.516Z,100.00
2023-02-17T02:21:23.608Z,100.00
2023-02-17T02:24:30.982Z,100.00
2023-02-17T02:27:24.783Z,100.00
2023-02-17T02:29:53.751Z,100.00
2023-02-17T02:32:40.586Z,100.00
2023-02-17T02:35:45.607Z,100.00
2023-02-17T02:38:22.274Z,100.00
2023-02-17T02:40:57.219Z,100.00
2023-02-17T02:43:27.848Z,100.00
2023-02-17T02:45:58.162Z,100.00
2023-02-17T02:48:27.994Z,100.00
2023-02-17T02:51:17.882Z,100.00
2023-02-17T02:54:04.977Z,100.00
2023-02-17T02:57:10.755Z,100.00
2023-02-17T03:00:08.845Z,100.00
2023-02-17T03:02:52.738Z,100.00
2023-02-17T03:05:46.765Z,100.00
2023-02-17T03:08:27.790Z,100.00
2023-02-17T03:10:58.692Z,100.00
2023-02-17T03:13:29.145Z,100.00
2023-02-17T03:16:02.145Z,100.00
2023-02-17T03:18:38.237Z,100.00
2023-02-17T03:21:16.518Z,100.00
2023-02-17T03:23:47.502Z,100.00
2023-02-17T03:26:18.457Z,100.00
2023-02-17T03:28:50.924Z,100.00
2023-02-17T03:31:21.231Z,100.00
2023-02-17T03:33:50.530Z,100.00
2023-02-17T03:36:20.763Z,100.00
2023-02-17T03:38:50.490Z,100.00
2023-02-17T03:41:20.466Z,100.00
2023-02-17T03:43:49.979Z,100.00
2023-02-17T03:46:20.055Z,100.00
2023-02-17T03:48:49.412Z,100.00
2023-02-17T03:51:24.407Z,100.00
2023-02-17T03:53:53.818Z,100.00
2023-02-17T03:56:23.661Z,100.00
2023-02-17T03:58:53.456Z,100.00
2023-02-17T04:01:22.559Z,100.00
2023-02-17T04:03:52.142Z,100.00
2023-02-17T04:06:22.870Z,100.00
2023-02-17T04:08:52.199Z,100.00
2023-02-17T04:11:22.645Z,100.00
2023-02-17T04:13:52.113Z,100.00
2023-02-17T04:16:22.026Z,100.00
2023-02-17T04:18:51.730Z,100.00
2023-02-17T04:21:21.330Z,100.00
2023-02-17T04:23:50.274Z,100.00
2023-02-17T04:26:19.955Z,100.00
2023-02-17T04:28:50.671Z,100.00
2023-02-17T04:31:19.741Z,100.00
2023-02-17T04:33:49.166Z,100.00
2023-02-17T04:36:18.712Z,100.00
2023-02-17T04:38:47.998Z,100.00
2023-02-17T04:41:16.869Z,100.00
2023-02-17T04:43:46.257Z,100.00
2023-02-17T04:46:15.516Z,100.00
2023-02-17T04:48:45.019Z,100.00
2023-02-17T04:51:13.949Z,100.00
2023-02-17T04:53:44.152Z,100.00
2023-02-17T04:56:13.375Z,100.00
2023-02-17T04:58:42.974Z,100.00
2023-02-17T05:01:11.868Z,100.00
2023-02-17T05:03:40.956Z,100.00
2023-02-17T05:06:11.387Z,100.00
2023-02-17T05:08:40.683Z,100.00
2023-02-17T05:11:09.687Z,100.00
2023-02-17T05:13:38.798Z,100.00
2023-02-17T05:16:08.039Z,100.00
2023-02-17T05:18:38.729Z,99.54
2023-02-17T05:21:07.710Z,98.01
2023-02-17T05:23:41.629Z,97.88
2023-02-17T05:26:11.729Z,98.45
2023-02-17T05:28:40.647Z,99.17
2023-02-17T05:31:09.755Z,100.00
2023-02-17T05:33:39.518Z,100.00
2023-02-17T05:36:10.596Z,100.00
2023-02-17T05:38:40.607Z,100.00
2023-02-17T05:41:09.509Z,100.00
2023-02-17T05:43:39.089Z,100.00
2023-02-17T05:46:09.173Z,100.00
2023-02-17T05:48:38.186Z,100.00
2023-02-17T05:51:07.918Z,100.00
2023-02-17T05:53:37.202Z,100.00
2023-02-17T05:56:07.153Z,100.00
2023-02-17T05:58:36.717Z,100.00
2023-02-17T06:01:12.357Z,100.00
2023-02-17T06:03:41.468Z,100.00
2023-02-17T06:06:10.158Z,100.00
2023-02-17T06:08:40.439Z,100.00
2023-02-17T06:11:09.383Z,100.00
2023-02-17T06:13:38.682Z,100.00
2023-02-17T06:16:08.108Z,100.00
2023-02-17T06:18:36.959Z,100.00
2023-02-17T06:21:06.566Z,100.00
2023-02-17T06:23:36.297Z,100.00
2023-02-17T06:26:05.522Z,100.00
2023-02-17T06:28:35.261Z,99.97
2023-02-17T06:31:04.749Z,99.86
2023-02-17T06:33:34.086Z,99.06
2023-02-17T06:36:03.461Z,98.46
2023-02-17T06:38:33.832Z,97.57
2023-02-17T06:41:03.114Z,97.40
2023-02-17T06:43:31.896Z,97.50
2023-02-17T06:46:01.144Z,96.97
2023-02-17T06:48:33.291Z,95.96
2023-02-17T06:51:02.269Z,95.22
2023-02-17T06:53:31.140Z,94.88
2023-02-17T06:56:00.258Z,94.08
2023-02-17T06:58:29.026Z,90.85
2023-02-17T07:00:57.816Z,89.51
2023-02-17T07:03:27.119Z,88.92
2023-02-17T07:05:59.762Z,88.11
2023-02-17T07:08:28.593Z,88.54
2023-02-17T07:10:57.280Z,89.86
2023-02-17T07:13:26.471Z,89.44
2023-02-17T07:15:55.159Z,84.30
2023-02-17T07:18:23.938Z,82.33
2023-02-17T07:20:52.857Z,81.74
2023-02-17T07:23:21.622Z,81.41
2023-02-17T07:25:50.519Z,81.94
2023-02-17T07:28:19.499Z,82.00
2023-02-17T07:41:52.088Z,78.41
2023-02-17T07:44:22.818Z,77.35
2023-02-17T07:46:51.610Z,77.16
2023-02-17T07:49:20.389Z,77.99
2023-02-17T07:51:49.074Z,76.81
2023-02-17T07:54:19.304Z,77.09
2023-02-17T07:56:47.880Z,76.78
2023-02-17T07:59:17.193Z,76.64
2023-02-17T08:01:45.806Z,75.61
2023-02-17T08:04:14.498Z,76.40
2023-02-17T08:06:43.759Z,76.26
2023-02-17T08:09:31.598Z,74.62
2023-02-17T08:12:19.316Z,74.61
2023-02-17T08:14:47.911Z,75.13
2023-02-17T08:17:16.592Z,75.91
2023-02-17T08:19:49.350Z,76.67
2023-02-17T08:22:18.711Z,77.62
2023-02-17T08:24:47.987Z,76.85
2023-02-17T08:27:17.889Z,76.28
2023-02-17T08:29:46.972Z,75.80
2023-02-17T08:32:17.776Z,75.71
2023-02-17T08:34:46.598Z,75.54
2023-02-17T08:37:15.605Z,75.45
2023-02-17T08:39:44.273Z,73.28
2023-02-17T08:42:13.987Z,73.53
2023-02-17T08:44:43.083Z,73.55
2023-02-17T08:47:11.998Z,73.93
2023-02-17T08:49:41.402Z,73.95
2023-02-17T08:52:10.287Z,73.69
2023-02-17T08:54:39.670Z,74.10
2023-02-17T08:57:08.475Z,73.81
2023-02-17T08:59:37.451Z,74.54
2023-02-17T09:02:07.013Z,74.85
2023-02-17T09:04:35.776Z,74.66
2023-02-17T09:07:04.863Z,74.44
2023-02-17T09:09:35.198Z,74.39
2023-02-17T09:12:04.472Z,74.52
2023-02-17T09:14:33.157Z,75.27
2023-02-17T09:17:02.265Z,74.21
2023-02-17T09:19:32.640Z,72.91
2023-02-17T09:22:01.151Z,71.16
2023-02-17T09:24:29.962Z,70.62
2023-02-17T09:26:58.522Z,70.85
2023-02-17T09:29:27.934Z,69.79
2023-02-17T09:31:56.938Z,69.36
2023-02-17T09:34:25.728Z,69.48
2023-02-17T09:36:56.442Z,70.67
2023-02-17T09:39:26.572Z,70.33
2023-02-17T09:41:58.623Z,70.08
2023-02-17T09:44:39.426Z,69.30
2023-02-17T09:47:21.512Z,67.86
2023-02-17T09:50:18.884Z,66.46
2023-02-17T09:53:01.480Z,67.82
2023-02-17T09:55:39.295Z,66.13
2023-02-17T09:58:20.675Z,61.86
2023-02-17T10:00:55.004Z,60.58
2023-02-17T10:03:36.437Z,59.43
2023-02-17T10:06:28.035Z,56.17
2023-02-17T10:09:23.299Z,55.33
2023-02-17T10:12:10.399Z,55.21
2023-02-17T10:14:52.621Z,49.45
2023-02-17T10:17:30.328Z,48.72
2023-02-17T10:20:30.137Z,48.03
2023-02-17T10:23:27.675Z,50.01
2023-02-17T10:26:45.162Z,47.79
2023-02-17T10:29:29.137Z,45.51
2023-02-17T10:32:01.230Z,45.00
2023-02-17T10:34:38.494Z,43.99
2023-02-17T10:37:42.575Z,43.20
2023-02-17T10:40:32.587Z,42.59
2023-02-17T10:43:07.644Z,42.16
2023-02-17T10:45:42.159Z,40.97
2023-02-17T10:48:29.157Z,40.81
2023-02-17T10:51:00.718Z,41.78
2023-02-17T10:53:38.106Z,42.20
2023-02-17T10:56:36.895Z,42.56
2023-02-17T10:59:22.179Z,43.60
2023-02-17T11:01:51.281Z,43.53
2023-02-17T11:04:19.957Z,43.51
2023-02-17T11:06:55.477Z,42.76
2023-02-17T11:09:32.308Z,42.19
2023-02-17T11:12:05.058Z,40.27
2023-02-17T11:14:37.118Z,40.37
2023-02-17T11:17:35.920Z,41.40
2023-02-17T11:20:07.366Z,41.67
2023-02-17T11:22:41.477Z,41.48
2023-02-17T11:25:28.904Z,40.73
2023-02-17T11:28:02.498Z,41.40
2023-02-17T11:30:33.907Z,40.64
2023-02-17T11:33:18.138Z,39.27
2023-02-17T11:35:55.272Z,39.27
2023-02-17T11:38:46.398Z,38.78
2023-02-17T11:41:15.302Z,39.52
2023-02-17T11:44:01.375Z,40.69
2023-02-17T11:46:53.434Z,39.93
2023-02-17T11:49:33.676Z,39.94
2023-02-17T11:52:35.108Z,40.42
2023-02-17T11:55:03.913Z,40.29
2023-02-17T11:57:46.033Z,40.16
2023-02-17T12:00:18.033Z,39.74
2023-02-17T12:03:05.480Z,39.08
2023-02-17T12:06:02.548Z,38.33
2023-02-17T12:08:41.682Z,37.41
2023-02-17T12:11:38.744Z,38.60
2023-02-17T12:14:41.422Z,41.10
2023-02-17T12:17:25.259Z,40.02
2023-02-17T12:20:31.935Z,42.63
2023-02-17T12:23:17.001Z,43.91
2023-02-17T12:25:59.815Z,46.10
2023-02-17T12:28:54.821Z,47.50
2023-02-17T12:31:40.773Z,49.02
2023-02-17T12:34:32.451Z,51.57
2023-02-17T12:37:01.738Z,53.05
2023-02-17T12:39:46.289Z,54.28
2023-02-17T12:42:22.176Z,55.73
2023-02-17T12:44:58.886Z,56.03
2023-02-17T12:47:35.700Z,58.10
2023-02-17T12:50:17.180Z,58.08
2023-02-17T12:52:49.352Z,58.00
2023-02-17T12:55:22.374Z,58.84
2023-02-17T12:58:00.970Z,57.64
2023-02-17T13:00:39.069Z,57.24
2023-02-17T13:03:08.578Z,56.93
2023-02-17T13:05:48.517Z,57.73
2023-02-17T13:08:46.489Z,58.68
2023-02-17T13:11:28.223Z,59.38
2023-02-17T13:13:57.077Z,58.00
2023-02-17T13:16:26.066Z,58.17
2023-02-17T13:18:54.747Z,58.66
2023-02-17T13:21:25.173Z,58.95
2023-02-17T13:24:01.542Z,57.97
2023-02-17T13:26:32.069Z,58.44
2023-02-17T13:29:35.483Z,58.55
2023-02-17T13:32:07.911Z,57.13
2023-02-17T13:34:45.437Z,57.45
2023-02-17T13:37:20.266Z,57.57
2023-02-17T13:39:48.850Z,57.59
2023-02-17T13:42:35.150Z,57.47
2023-02-17T13:45:37.930Z,58.14
2023-02-17T13:48:22.394Z,57.42
2023-02-17T13:50:54.458Z,58.71
2023-02-17T13:53:37.482Z,58.95
2023-02-17T13:56:24.800Z,58.44
2023-02-17T13:58:53.990Z,58.12
2023-02-17T14:01:29.059Z,58.48
2023-02-17T14:04:00.479Z,58.74
2023-02-17T14:06:38.071Z,59.75
2023-02-17T14:09:24.878Z,59.35
2023-02-17T14:11:55.619Z,57.88
2023-02-17T14:14:37.303Z,59.06
2023-02-17T14:17:12.443Z,60.50
2023-02-17T14:19:46.553Z,60.28
2023-02-17T14:22:33.509Z,61.39
2023-02-17T14:25:08.847Z,61.62
2023-02-17T14:27:44.863Z,63.08
2023-02-17T14:30:16.313Z,64.50
2023-02-17T14:32:45.300Z,65.74
2023-02-17T14:35:14.201Z,66.42
2023-02-17T14:37:43.476Z,67.26
2023-02-17T14:40:25.832Z,68.29
2023-02-17T14:42:54.400Z,68.84
2023-02-17T14:45:23.272Z,69.53
2023-02-17T14:47:51.961Z,70.23
2023-02-17T14:50:21.163Z,70.67
2023-02-17T14:52:52.848Z,71.47
2023-02-17T14:55:39.737Z,71.69
2023-02-17T14:58:18.148Z,72.50
2023-02-17T15:00:48.158Z,72.84
2023-02-17T15:03:17.358Z,72.36
2023-02-17T15:05:46.065Z,72.82
2023-02-17T15:08:27.430Z,72.11
2023-02-17T15:10:56.229Z,73.57
2023-02-17T15:13:24.829Z,74.01
2023-02-17T15:15:55.153Z,71.05
2023-02-17T15:18:23.912Z,71.21
2023-02-17T15:20:52.805Z,72.11
2023-02-17T15:23:24.253Z,73.08
2023-02-17T15:25:54.983Z,70.29
2023-02-17T15:28:23.566Z,70.57
2023-02-17T15:30:55.460Z,72.42
2023-02-17T15:33:24.977Z,71.59
2023-02-17T15:35:55.197Z,74.24
2023-02-17T15:38:24.875Z,72.92
2023-02-17T15:40:57.129Z,74.02
2023-02-17T15:46:15.323Z,74.51
2023-02-17T15:48:46.131Z,75.31
2023-02-17T15:51:16.054Z,75.54
2023-02-17T15:53:44.720Z,75.74
2023-02-17T15:56:22.723Z,74.39
2023-02-17T15:58:53.571Z,76.14
2023-02-17T16:01:28.401Z,76.65
2023-02-17T16:03:57.824Z,76.99
2023-02-17T16:06:27.984Z,76.51
2023-02-17T16:08:59.200Z,77.36
2023-02-17T16:11:28.995Z,76.83
2023-02-17T16:13:57.776Z,77.86
2023-02-17T16:16:36.447Z,77.99
2023-02-17T16:19:05.074Z,78.35
2023-02-17T16:21:33.965Z,78.51
2023-02-17T16:24:02.649Z,78.34
2023-02-17T16:26:36.956Z,78.47
2023-02-17T16:29:21.205Z,78.39
2023-02-17T16:31:50.497Z,78.04
2023-02-17T16:34:24.362Z,77.93
2023-02-17T16:36:57.145Z,79.36
2023-02-17T16:39:25.889Z,78.23
2023-02-17T16:41:54.669Z,77.20
2023-02-17T16:44:24.080Z,78.34
2023-02-17T16:46:54.830Z,78.41
2023-02-17T16:49:33.342Z,78.04
2023-02-17T16:52:08.450Z,77.41
2023-02-17T16:54:38.021Z,78.21
2023-02-17T16:57:07.072Z,77.71
2023-02-17T16:59:35.584Z,77.61
2023-02-17T17:02:04.364Z,77.30
2023-02-17T17:04:33.522Z,77.07
2023-02-17T17:07:02.202Z,77.28
2023-02-17T17:09:31.200Z,75.90
2023-02-17T17:11:59.889Z,75.98
2023-02-17T17:14:28.580Z,77.82
2023-02-17T17:17:01.160Z,75.21
2023-02-17T17:19:29.830Z,74.03
2023-02-17T17:21:58.416Z,74.59
2023-02-17T17:24:27.940Z,79.56
2023-02-17T17:26:56.504Z,79.66
2023-02-17T17:29:25.493Z,79.30
2023-02-17T17:31:54.074Z,78.54
2023-02-17T17:34:22.874Z,78.61
2023-02-17T17:36:51.557Z,78.16
2023-02-17T17:39:22.602Z,78.29
2023-02-17T17:41:51.791Z,78.42
2023-02-17T17:44:20.900Z,79.06
2023-02-17T17:46:49.369Z,79.49
2023-02-17T17:49:18.771Z,79.20
2023-02-17T17:51:47.352Z,79.05
2023-02-17T17:54:15.938Z,78.90
2023-02-17T17:56:44.640Z,78.55
2023-02-17T17:59:14.846Z,76.59
2023-02-17T18:01:45.739Z,78.03
2023-02-17T18:04:14.905Z,78.67
2023-02-17T18:06:48.934Z,75.75
2023-02-17T18:09:31.216Z,75.14
2023-02-17T18:12:07.357Z,79.07
2023-02-17T18:14:38.628Z,78.31
2023-02-17T18:17:10.572Z,76.02
2023-02-17T18:19:40.066Z,75.97
2023-02-17T18:22:08.757Z,78.05
2023-02-17T18:24:37.614Z,79.30
2023-02-17T18:27:06.436Z,80.25
2023-02-17T18:29:35.224Z,80.63
2023-02-17T18:32:04.209Z,80.22
2023-02-17T18:34:33.611Z,79.17
2023-02-17T18:37:02.300Z,80.93
2023-02-17T18:39:30.980Z,81.31
2023-02-17T18:41:59.562Z,81.48
2023-02-17T18:44:28.044Z,82.95
2023-02-17T18:46:56.627Z,80.14
2023-02-17T18:49:25.207Z,80.25
2023-02-17T18:51:54.813Z,82.22
2023-02-17T18:54:23.498Z,83.64
2023-02-17T18:56:52.188Z,82.77
2023-02-17T18:59:20.775Z,82.99
2023-02-17T19:01:49.457Z,84.28
2023-02-17T19:04:18.143Z,83.72
2023-02-17T19:06:46.724Z,81.56
2023-02-17T19:09:15.512Z,86.67
2023-02-17T19:11:44.297Z,88.51
2023-02-17T19:14:13.284Z,89.67
2023-02-17T19:16:42.179Z,89.43
2023-02-17T19:19:10.785Z,87.87
2023-02-17T19:21:39.361Z,88.71
2023-02-17T19:24:09.871Z,89.88
2023-02-17T19:26:38.659Z,89.08
2023-02-17T19:29:07.149Z,90.83
2023-02-17T19:31:36.036Z,92.23
2023-02-17T19:34:04.817Z,91.75
2023-02-17T19:36:33.335Z,91.23
2023-02-17T19:39:02.319Z,91.28
2023-02-17T19:41:30.774Z,93.18
2023-02-17T19:43:59.466Z,94.05
2023-02-17T19:46:28.688Z,95.07
2023-02-17T19:48:57.252Z,94.55
2023-02-17T19:51:26.034Z,94.29
2023-02-17T19:53:54.741Z,95.23
2023-02-17T19:56:25.863Z,95.45
2023-02-17T19:58:55.327Z,96.46
2023-02-17T20:01:26.893Z,96.67
2023-02-17T20:03:56.743Z,97.02
2023-02-17T20:06:33.934Z,97.04
2023-02-17T20:09:05.883Z,97.29
2023-02-17T20:11:34.664Z,93.45
2023-02-17T20:14:03.863Z,90.09
2023-02-17T20:16:32.964Z,89.89
2023-02-17T20:19:03.190Z,88.72
2023-02-17T20:21:34.840Z,87.63
2023-02-17T20:24:03.325Z,87.80
2023-02-17T20:26:38.045Z,88.09
2023-02-17T20:29:07.140Z,92.95
2023-02-17T20:31:37.903Z,93.80
2023-02-17T20:34:09.351Z,94.55
2023-02-17T20:36:37.758Z,91.37
2023-02-17T20:39:06.386Z,90.75
2023-02-17T20:41:35.072Z,93.99
2023-02-17T20:44:05.169Z,95.12
2023-02-17T20:46:33.982Z,96.77
2023-02-17T20:49:02.884Z,96.54
2023-02-17T20:51:31.559Z,96.95
2023-02-17T20:54:00.356Z,97.01
2023-02-17T20:56:35.511Z,96.78
2023-02-17T20:59:05.751Z,96.52
2023-02-17T21:01:34.191Z,96.99
2023-02-17T21:04:03.349Z,96.85
2023-02-17T21:06:35.548Z,95.45
2023-02-17T21:09:08.655Z,94.91
2023-02-17T21:11:37.632Z,94.28
2023-02-17T21:14:06.116Z,95.15
2023-02-17T21:16:34.715Z,93.27
2023-02-17T21:19:04.829Z,95.37
2023-02-17T21:21:33.603Z,96.66
2023-02-17T21:24:02.297Z,95.78
2023-02-17T21:26:31.183Z,96.32
2023-02-17T21:28:59.975Z,97.11
2023-02-17T21:31:32.032Z,95.79
2023-02-17T21:34:01.233Z,93.98
2023-02-17T21:36:30.321Z,94.93
2023-02-17T21:38:59.521Z,94.85
2023-02-17T21:41:30.422Z,91.97
2023-02-17T21:44:19.125Z,91.23
2023-02-17T21:46:49.893Z,90.76
2023-02-17T21:49:18.535Z,89.88
2023-02-17T21:51:47.316Z,91.48
2023-02-17T21:54:16.563Z,95.49
2023-02-17T21:56:45.508Z,95.34
2023-02-17T21:59:14.606Z,96.37
2023-02-17T22:01:43.185Z,97.58
2023-02-17T22:04:11.915Z,97.93
2023-02-17T22:06:42.300Z,96.85
2023-02-17T22:09:15.947Z,96.79
2023-02-17T22:11:46.576Z,97.32
2023-02-17T22:14:18.903Z,95.87
2023-02-17T22:16:48.584Z,96.64
2023-02-17T22:19:21.354Z,97.88
2023-02-17T22:21:51.518Z,98.48
2023-02-17T22:24:23.062Z,99.18
2023-02-17T22:26:51.954Z,98.13
2023-02-17T22:29:21.371Z,95.48
2023-02-17T22:31:50.848Z,93.85
2023-02-17T22:34:19.954Z,92.13
2023-02-17T22:36:49.283Z,95.54
2023-02-17T22:39:18.069Z,98.91
2023-02-17T22:41:47.967Z,98.75
2023-02-17T22:44:16.868Z,98.04
2023-02-17T22:46:46.667Z,98.72
2023-02-17T22:49:15.357Z,99.49
2023-02-17T22:51:44.345Z,99.11
2023-02-17T22:54:13.025Z,98.66
2023-02-17T22:56:42.120Z,99.76
2023-02-17T22:59:11.421Z,99.35
2023-02-17T23:01:40.259Z,99.57
2023-02-17T23:04:09.689Z,99.91
2023-02-17T23:06:38.822Z,99.45
2023-02-17T23:09:10.346Z,99.26
2023-02-17T23:11:50.544Z,99.62
2023-02-17T23:14:24.325Z,97.19
2023-02-17T23:16:55.160Z,95.09
2023-02-17T23:19:24.681Z,95.71
2023-02-17T23:21:59.260Z,98.73
2023-02-17T23:24:28.687Z,99.71
2023-02-17T23:26:58.984Z,99.79
2023-02-17T23:29:28.782Z,99.45
2023-02-17T23:31:57.849Z,98.85
2023-02-17T23:34:28.728Z,97.15
2023-02-17T23:36:57.559Z,98.33
2023-02-17T23:39:26.757Z,98.61
2023-02-17T23:41:55.718Z,98.46
2023-02-17T23:44:25.220Z,98.61
2023-02-17T23:46:54.439Z,99.50
2023-02-17T23:49:23.233Z,97.02
2023-02-17T23:51:52.233Z,97.47
2023-02-17T23:54:21.218Z,97.67
2023-02-17T23:56:50.114Z,95.61
2023-02-17T23:59:19.311Z,93.65
